Meteo Giornale » Osservazioni meteo Egitto » Cairo

ore: 16:00 - Osservazioni Meteo Cairo
Lat. 30° 8' N Lon. 31° 24' E Alt. 64 metri s.l.m.

molto_nuvoloso Africa/Cairo

14 °C

Molto Nuvoloso

Temp. 24 Ore

12 °C

17 °C

Nord/NOvest

31.5 Km/h

Dew point 3 °C

Umidità 47 %

Visibilità  10 Km

Il sole sorge alle ore 06:48

Il sole tramonta alle ore 17:22

Data e Ora Cielo e Fenomeni T °C DP °C Um. % Pres. hPa Vis. km Vento km/h
Oggi h: 16:00 molto_nuvoloso Molto Nuvoloso 14 3 47 1023 10 N/NO 31.5
Oggi h: 15:30 molto_nuvoloso Molto Nuvoloso 15 2 41 1023 10 N/NO 27.8
Oggi h: 15:00 molto_nuvoloso Molto Nuvoloso 16 0 33 1023 10 O/NO 29.6
Oggi h: 14:30 nuvoloso Nuvoloso 16 2 38 1023 10 NO 24
Oggi h: 14:00 nuvoloso Nuvoloso 16 -0 33 1023 10 O/NO 33.3
Oggi h: 13:30 nuvoloso Nuvoloso 16 1 36 1023 10 N/NO 29.6
Oggi h: 13:00 nuvoloso Nuvoloso 15 0 35 1024 10 NO 29.6
Oggi h: 12:30 nuvoloso Nuvoloso 15 1 38 1024 10 NO 31.5
Oggi h: 12:00 nuvoloso Nuvoloso 15 1 38 1025 10 N/NO 22.2
Oggi h: 11:30 nuvoloso Nuvoloso 15 1 38 1025 10 N/NO 27.8
Oggi h: 11:00 nuvoloso Nuvoloso 15 1 38 1026 10 N/NO 27.8
Oggi h: 10:30 poco_nuvoloso Poco Nuvoloso 15 3 44 1026 10 NO 22.2
Oggi h: 10:00 poco_nuvoloso Poco Nuvoloso 14 4 50 1026 10 N/NO 16.7
Oggi h: 09:30 molto_nuvoloso Molto Nuvoloso 13 4 54 1026 10 NO 14.8
Oggi h: 09:00 molto_nuvoloso Molto Nuvoloso 13 4 54 1026 10 NO 18.5
Oggi h: 08:30 molto_nuvoloso Molto Nuvoloso 13 4 54 1025 10 NO 20.3
Oggi h: 08:00 molto_nuvoloso Molto Nuvoloso 13 4 54 1025 10 O/NO 18.5
Oggi h: 07:30 poco_nuvoloso Poco Nuvoloso 12 3 54 1025 10 O/NO 16.7
Oggi h: 07:00 poco_nuvoloso Poco Nuvoloso 12 3 54 1025 10 O 16.7
Oggi h: 06:30 nuvoloso Nuvoloso 12 3 54 1025 10 O 18.5
Oggi h: 06:00 nuvoloso Nuvoloso 12 3 54 1025 10 O 20.3
Oggi h: 05:30 nuvoloso Nuvoloso 12 3 54 1025 10 O 20.3
Oggi h: 05:00 nuvoloso Nuvoloso 12 3 54 1025 10 O 14.8
Oggi h: 04:30 nuvoloso Nuvoloso 12 3 54 1025 10 O 16.7
Oggi h: 04:00 nuvoloso Nuvoloso 12 3 54 1025 10 O/NO 13
Oggi h: 03:30 nuvoloso Nuvoloso 12 4 57 1025 10 O/NO 20.3
Oggi h: 03:00 nuvoloso Nuvoloso 13 5 58 1025 10 O/NO 24
Oggi h: 02:30 nuvoloso Nuvoloso 13 4 54 1025 10 O 16.7
Oggi h: 02:00 nuvoloso Nuvoloso 13 4 54 1025 10 O/NO 13
Oggi h: 01:30 nuvoloso Nuvoloso 13 5 58 1026 10 O/NO 13
Oggi h: 01:00 nuvoloso Nuvoloso 13 5 58 1026 10 O/NO 16.7
Oggi h: 00:30 nuvoloso Nuvoloso 13 5 58 1026 10 O/NO 16.7
Oggi h: 00:00 nuvoloso Nuvoloso 13 4 54 1026 10 NO 16.7
Ieri h: 23:30 poco_nuvoloso Poco Nuvoloso 13 5 58 1027 10 O/NO 18.5
Ieri h: 23:00 poco_nuvoloso Poco Nuvoloso 13 5 58 1027 10 O/NO 14.8
Ieri h: 22:30 poco_nuvoloso Poco Nuvoloso 13 5 58 1027 10 O/NO 16.7
Ieri h: 22:00 poco_nuvoloso Poco Nuvoloso 13 5 58 1027 10 O/NO 16.7
Ieri h: 21:30 nuvoloso Nuvoloso 13 6 62 1027 10 O/NO 16.7
Ieri h: 21:00 nuvoloso Nuvoloso 14 6 58 1027 10 NO 18.5
Ieri h: 20:30 nuvoloso Nuvoloso 14 6 58 1027 10 NO 18.5
Ieri h: 20:00 nuvoloso Nuvoloso 14 6 58 1027 10 NO 22.2
Ieri h: 19:00 molto_nuvoloso Molto Nuvoloso 15 6 54 1026 10 NO 22.2
Ieri h: 18:30 molto_nuvoloso Molto Nuvoloso 15 5 51 1026 10 NO 20.3
Ieri h: 18:00 molto_nuvoloso Molto Nuvoloso 15 5 51 1026 10 NO 22.2
Ieri h: 17:30 molto_nuvoloso Molto Nuvoloso 16 2 38 1026 10 O/NO 22.2
Ieri h: 17:00 molto_nuvoloso Molto Nuvoloso 16 3 41 1025 10 NO 27.8
Ieri h: 16:30 molto_nuvoloso Molto Nuvoloso 16 4 44 1025 10 O/NO 31.5
Ieri h: 16:00 molto_nuvoloso Molto Nuvoloso 17 5 45 1025 10 O/NO 29.6